Map

Track Data

SID SEASON NUMBER BASIN SUBBASIN NAME ISO_TIME NATURE LAT LON WMO_WIND WMO_PRES WMO_AGENCY TRACK_TYPE DIST2LAND LANDFALL IFLAG USA_AGENCY USA_ATCF_ID USA_LAT USA_LON USA_RECORD USA_STATUS USA_WIND USA_PRES USA_SSHS USA_R34_NE USA_R34_SE USA_R34_SW USA_R34_NW USA_R50_NE USA_R50_SE USA_R50_SW USA_R50_NW USA_R64_NE USA_R64_SE USA_R64_SW USA_R64_NW USA_POCI USA_ROCI USA_RMW USA_EYE TOKYO_LAT TOKYO_LON TOKYO_GRADE TOKYO_WIND TOKYO_PRES TOKYO_R50_DIR TOKYO_R50_LONG TOKYO_R50_SHORT TOKYO_R30_DIR TOKYO_R30_LONG TOKYO_R30_SHORT TOKYO_LAND CMA_LAT CMA_LON CMA_CAT CMA_WIND CMA_PRES HKO_LAT HKO_LON HKO_CAT HKO_WIND HKO_PRES NEWDELHI_LAT NEWDELHI_LON NEWDELHI_GRADE NEWDELHI_WIND NEWDELHI_PRES NEWDELHI_CI NEWDELHI_DP NEWDELHI_POCI REUNION_LAT REUNION_LON REUNION_TYPE REUNION_WIND REUNION_PRES REUNION_TNUM REUNION_CI REUNION_RMW REUNION_R34_NE REUNION_R34_SE REUNION_R34_SW REUNION_R34_NW REUNION_R50_NE REUNION_R50_SE REUNION_R50_SW REUNION_R50_NW REUNION_R64_NE REUNION_R64_SE REUNION_R64_SW REUNION_R64_NW BOM_LAT BOM_LON BOM_TYPE BOM_WIND BOM_PRES BOM_TNUM BOM_CI BOM_RMW BOM_R34_NE BOM_R34_SE BOM_R34_SW BOM_R34_NW BOM_R50_NE BOM_R50_SE BOM_R50_SW BOM_R50_NW BOM_R64_NE BOM_R64_SE BOM_R64_SW BOM_R64_NW BOM_ROCI BOM_POCI BOM_EYE BOM_POS_METHOD BOM_PRES_METHOD NADI_LAT NADI_LON NADI_CAT NADI_WIND NADI_PRES WELLINGTON_LAT WELLINGTON_LON WELLINGTON_WIND WELLINGTON_PRES DS824_LAT DS824_LON DS824_STAGE DS824_WIND DS824_PRES TD9636_LAT TD9636_LON TD9636_STAGE TD9636_WIND TD9636_PRES TD9635_LAT TD9635_LON TD9635_WIND TD9635_PRES TD9635_ROCI NEUMANN_LAT NEUMANN_LON NEUMANN_CLASS NEUMANN_WIND NEUMANN_PRES MLC_LAT MLC_LON MLC_CLASS MLC_WIND MLC_PRES USA_GUST BOM_GUST BOM_GUST_PER REUNION_GUST REUNION_GUST_PER USA_SEAHGT USA_SEARAD_NE USA_SEARAD_SE USA_SEARAD_SW USA_SEARAD_NW STORM_SPEED STORM_DIR
1945331S09063 1946 80 SI MM NOT_NAMED 1945-11-27 06:00:00 TS -9.30000 63.1000 main 1340 1306 O________OO___ jtwc_sh SH021946 -9.30000 63.1000 -1 -9.30000 63.1000 TC 25 -9.30000 63.1000 7 8 240
1945331S09063 1946 80 SI MM NOT_NAMED 1945-11-27 09:00:00 TS -9.49976 62.7465 main 1302 1268 P________PP___ SH021946 -9.49007 62.7501 -1 -9.49007 62.7501 TC 25 -9.51914 62.7395 7 8 239
1945331S09063 1946 80 SI MM NOT_NAMED 1945-11-27 12:00:00 TS -9.71349 62.3943 main 1268 1235 O________OP___ jtwc_sh SH021946 -9.70000 62.4000 -1 -9.70000 62.4000 TC 25 -9.74048 62.3830 7 8 237
1945331S09063 1946 80 SI MM NOT_NAMED 1945-11-27 15:00:00 TS -9.95050 62.0450 main 1221 1188 P________PP___ SH021946 -9.94246 62.0500 -1 -9.94246 62.0500 TC 25 -9.96657 62.0350 7 8 235
1945331S09063 1946 80 SI MM NOT_NAMED 1945-11-27 18:00:00 TS -10.2000 61.7000 main 1188 1155 O________OO___ jtwc_sh SH021946 -10.2000 61.7000 -1 -10.2000 61.7000 TC 25 -10.2000 61.7000 1 8 234
1945331S09063 1946 80 SI MM NOT_NAMED 1945-11-27 21:00:00 TS -10.4475 61.3593 main 1155 1109 P________PP___ SH021946 -10.4500 61.3499 -1 -10.4500 61.3499 TC 25 -10.4425 61.3781 1 8 233
1945331S09063 1946 80 SI MM NOT_NAMED 1945-11-28 00:00:00 TS -10.6973 61.0173 main 1109 1078 O________OP___ jtwc_sh SH021946 -10.7000 61.0000 -1 -10.7000 61.0000 TC 25 -10.6919 61.0520 1 8 233
1945331S09063 1946 80 SI MM NOT_NAMED 1945-11-28 03:00:00 TS -10.9484 60.6815 main 1078 1034 P________PP___ SH021946 -10.9499 60.6724 -1 -10.9499 60.6724 TC 25 -10.9455 60.6999 1 9 234
1945331S09063 1946 80 SI MM NOT_NAMED 1945-11-28 06:00:00 TS -11.2000 60.3000 main 1034 1001 O________OO___ jtwc_sh SH021946 -11.2000 60.3000 -1 -11.2000 60.3000 TC 25 -11.2000 60.3000 1 10 239
1945331S09063 1946 80 SI MM NOT_NAMED 1945-11-28 09:00:00 TS -11.4473 59.8283 main 999 955 P________PP___ SH021946 -11.4500 59.8299 -1 -11.4500 59.8299 TC 25 -11.4420 59.8251 1 11 243
1945331S09063 1946 80 SI MM NOT_NAMED 1945-11-28 12:00:00 TS -11.6950 59.3007 main 955 925 O________OP___ jtwc_sh SH021946 -11.7000 59.3000 -1 -11.7000 59.3000 TC 25 -11.6851 59.3021 1 12 245
1945331S09063 1946 80 SI MM NOT_NAMED 1945-11-28 15:00:00 TS -11.9402 58.7510 main 925 885 P________PP___ SH021946 -11.9425 58.7499 -1 -11.9425 58.7499 TC 25 -11.9357 58.7531 1 12 245
1945331S09063 1946 80 SI MM NOT_NAMED 1945-11-28 18:00:00 TS -12.2000 58.2000 main 885 834 O________OO___ jtwc_sh SH021946 -12.2000 58.2000 -1 -12.2000 58.2000 TC 25 -12.2000 58.2000 1 12 242
1945331S09063 1946 80 SI MM NOT_NAMED 1945-11-28 21:00:00 TS -12.4983 57.6715 main 834 771 P________PP___ SH021946 -12.4923 57.6999 -1 -12.4923 57.6999 TC 25 -12.5103 57.6147 1 12 239
1945331S09063 1946 80 SI MM NOT_NAMED 1945-11-29 00:00:00 TS -12.8102 57.1461 main 761 698 O________OP___ jtwc_sh SH021946 -12.8000 57.2000 -1 -12.8000 57.2000 TC 25 -12.8306 57.0384 1 12 239
1945331S09063 1946 80 SI MM NOT_NAMED 1945-11-29 03:00:00 TS -13.1269 56.5811 main 698 636 P________PP___ SH021946 -13.1227 56.6127 -1 -13.1227 56.6127 TC 25 -13.1354 56.5178 1 12 240
1945331S09063 1946 80 SI MM NOT_NAMED 1945-11-29 06:00:00 TS -13.4000 56.1000 main 636 598 O________OO___ jtwc_sh SH021946 -13.4000 56.1000 -1 -13.4000 56.1000 TC 25 -13.4000 56.1000 1 9 240
1945331S09063 1946 80 SI MM NOT_NAMED 1945-11-29 09:00:00 TS -13.5736 55.7957 main 598 574 P________PP___ SH021946 -13.5723 55.7748 -1 -13.5723 55.7748 TC 25 -13.5762 55.8373 1 6 236
1945331S09063 1946 80 SI MM NOT_NAMED 1945-11-29 12:00:00 TS -13.7047 55.6264 main 574 571 O________OP___ jtwc_sh SH021946 -13.7000 55.6000 -1 -13.7000 55.6000 TC 25 -13.7142 55.6791 1 4 222
1945331S09063 1946 80 SI MM NOT_NAMED 1945-11-29 15:00:00 TS -13.8383 55.5504 main 571 554 P________PP___ SH021946 -13.8349 55.5349 -1 -13.8349 55.5349 TC 25 -13.8452 55.5813 1 3 203
1945331S09063 1946 80 SI MM NOT_NAMED 1945-11-29 18:00:00 TS -14.0000 55.5000 main 554 539 O________OO___ jtwc_sh SH021946 -14.0000 55.5000 -1 -14.0000 55.5000 TC 25 -14.0000 55.5000 1 4 206
1945331S09063 1946 80 SI MM NOT_NAMED 1945-11-29 21:00:00 TS -14.2304 55.3529 main 539 511 P________PP___ SH021946 -14.2350 55.3576 -1 -14.2350 55.3576 TC 25 -14.2213 55.3436 1 6 211
1945331S09063 1946 80 SI MM NOT_NAMED 1945-11-30 00:00:00 TS -14.4900 55.1993 main 511 497 O________OP___ jtwc_sh SH021946 -14.5000 55.2000 -1 -14.5000 55.2000 TC 25 -14.4700 55.1978 1 6 207
1945331S09063 1946 80 SI MM NOT_NAMED 1945-11-30 03:00:00 TS -14.7446 55.0827 main 497 483 P________PP___ SH021946 -14.7500 55.0850 -1 -14.7500 55.0850 TC 25 -14.7338 55.0780 1 5 201
1945331S09063 1946 80 SI MM NOT_NAMED 1945-11-30 06:00:00 TS -15.0000 55.0000 main 483 472 O________OO___ jtwc_sh SH021946 -15.0000 55.0000 -1 -15.0000 55.0000 TC 25 -15.0000 55.0000 1 5 196
1945331S09063 1946 80 SI MM NOT_NAMED 1945-11-30 09:00:00 TS -15.2472 54.9312 main 472 471 P________PP___ SH021946 -15.2500 54.9200 -1 -15.2500 54.9200 TC 25 -15.2418 54.9535 1 5 189
1945331S09063 1946 80 SI MM NOT_NAMED 1945-11-30 12:00:00 TS -15.4949 54.9176 main 471 471 O________OP___ jtwc_sh SH021946 -15.5000 54.9000 -1 -15.5000 54.9000 TC 25 -15.4848 54.9527 1 5 176
1945331S09063 1946 80 SI MM NOT_NAMED 1945-11-30 15:00:00 TS -15.7452 54.9752 main 483 483 P________PP___ SH021946 -15.7500 54.9625 -1 -15.7500 54.9625 TC 30 -15.7355 55.0005 1 5 161
1945331S09063 1946 80 SI MM NOT_NAMED 1945-11-30 18:00:00 TS -16.0000 55.1000 main 497 494 O________OO___ jtwc_sh SH021946 -16.0000 55.1000 -1 -16.0000 55.1000 TC 35 -16.0000 55.1000 2 6 149
1945331S09063 1946 80 SI MM NOT_NAMED 1945-11-30 21:00:00 TS -16.2303 55.2774 main 494 454 P________PP___ SH021946 -16.2350 55.2850 -1 -16.2350 55.2850 TC 30 -16.2209 55.2620 2 6 143
1945331S09063 1946 80 SI MM NOT_NAMED 1945-12-01 00:00:00 TS -16.4885 55.4901 main 454 415 O________OP___ jtwc_sh SH021946 -16.5000 55.5000 -1 -16.5000 55.5000 TC 25 -16.4654 55.4702 2 7 144
1945331S09063 1946 80 SI MM NOT_NAMED 1945-12-01 03:00:00 TS -16.7857 55.7028 main 415 365 P________PP___ SH021946 -16.7900 55.7076 -1 -16.7900 55.7076 TC 25 -16.7771 55.6933 2 8 151
1945331S09063 1946 80 SI MM NOT_NAMED 1945-12-01 06:00:00 TS -17.2000 55.9000 main 365 296 O________OO___ jtwc_sh SH021946 -17.2000 55.9000 -1 -17.2000 55.9000 TC 25 -17.2000 55.9000 1 11 161
1945331S09063 1946 80 SI MM NOT_NAMED 1945-12-01 09:00:00 TS -17.7938 56.0628 main 296 225 P________PP___ SH021946 -17.7900 56.0650 -1 -17.7900 56.0650 TC 25 -17.8012 56.0584 1 13 168
1945331S09063 1946 80 SI MM NOT_NAMED 1945-12-01 12:00:00 TS -18.5034 56.1982 main 225 161 O________OP___ jtwc_sh SH021946 -18.5000 56.2000 -1 -18.5000 56.2000 TC 25 -18.5101 56.1946 1 15 171
1945331S09063 1946 80 SI MM NOT_NAMED 1945-12-01 15:00:00 TS -19.2596 56.3128 main 154 109 P________PP___ SH021946 -19.2575 56.3150 -1 -19.2575 56.3150 TC 25 -19.2639 56.3085 1 15 173
1945331S09063 1946 80 SI MM NOT_NAMED 1945-12-01 18:00:00 TS -20.0000 56.4000 main 109 83 O________OO___ jtwc_sh SH021946 -20.0000 56.4000 -1 -20.0000 56.4000 TC 25 -20.0000 56.4000 1 14 174
1945331S09063 1946 80 SI MM NOT_NAMED 1945-12-01 21:00:00 TS -20.6383 56.4617 main 84 72 P________PP___ SH021946 -20.6225 56.4577 -1 -20.6225 56.4577 TC 25 -20.6698 56.4699 1 12 176
1945331S09063 1946 80 SI MM NOT_NAMED 1945-12-02 00:00:00 TS -21.2266 56.5076 main 72 72 O________OP___ jtwc_sh SH021946 -21.2000 56.5000 -1 -21.2000 56.5000 TC 25 -21.2797 56.5227 1 12 175
1945331S09063 1946 80 SI MM NOT_NAMED 1945-12-02 03:00:00 TS -21.8116 56.5530 main 99 99 P________PP___ SH021946 -21.7925 56.5474 -1 -21.7925 56.5474 TC -21.8498 56.5642 1 12 176
1945331S09063 1946 80 SI MM NOT_NAMED 1945-12-02 06:00:00 TS -22.4000 56.6000 main 148 O________OO___ jtwc_sh SH021946 -22.4000 56.6000 -1 -22.4000 56.6000 TC -22.4000 56.6000 1 12 176

About IBTrACS Database

This database is a web-friendly format of International Best Track Archive for Climate Stewardship (IBTrACS), a global best track data archive curated by NOAA dating back to 1842.

Updated: 2021-10-21